Fairmount, Ohio
Current Conditions -  °F | °C
As of 6:57 PM on Sunday 23 Nov 2014 (Local Time) from KI69 Reporting Station
Light Rain Light Rain  
Wind Chill: 55°   Ceiling: 900
Heat Index: 55°   Visibility: 10mi
Dew Point: 54°   Wind: 14mph
Humidity: 94%   Direction: 140°SE
Pressure: 29.5"   Gusts: 23mph
Location:  39.1179°N, 84.5317°W
Report Text: KI69 232357Z AUTO 14012G20KT 10SM -RA BKN009 OVC030 13/12 A2950 RMK AO1 P0005
Loading
Personal Weather Stations






























Interactive Weather Map New forecast layout! Learn more

10-Day Weather Forecast

Advertisements
Track Severe Weather on mobile